createdAt,value
2022-11-03T00:01:44.102Z,90.32
2022-11-03T00:04:13.892Z,89.07
2022-11-03T00:06:43.734Z,90.76
2022-11-03T00:09:13.916Z,90.13
2022-11-03T00:11:42.551Z,89.72
2022-11-03T00:14:10.455Z,90.45
2022-11-03T00:16:37.882Z,90.69
2022-11-03T00:19:05.288Z,90.06
2022-11-03T00:21:32.277Z,89.95
2022-11-03T00:23:58.998Z,90.12
2022-11-03T00:26:27.784Z,89.88
2022-11-03T00:29:00.725Z,89.05
2022-11-03T00:31:32.359Z,89.65
2022-11-03T00:34:00.468Z,89.13
2022-11-03T00:36:35.012Z,89.44
2022-11-03T00:39:02.370Z,90.14
2022-11-03T00:41:29.008Z,89.95
2022-11-03T00:43:57.468Z,89.54
2022-11-03T00:46:24.717Z,90.88
2022-11-03T00:48:53.442Z,90.42
2022-11-03T00:51:24.791Z,89.01
2022-11-03T00:53:56.813Z,91.16
2022-11-03T00:56:26.262Z,89.96
2022-11-03T00:58:53.986Z,90.60
2022-11-03T01:01:25.591Z,89.42
2022-11-03T01:04:12.874Z,89.43
2022-11-03T01:06:53.555Z,90.46
2022-11-03T01:09:39.533Z,90.66
2022-11-03T01:12:09.850Z,90.44
2022-11-03T01:14:43.568Z,90.09
2022-11-03T01:17:17.865Z,90.79
2022-11-03T01:19:44.936Z,90.67
2022-11-03T01:22:12.717Z,90.90
2022-11-03T01:24:45.160Z,91.06
2022-11-03T01:27:17.940Z,90.87
2022-11-03T01:29:45.967Z,91.80
2022-11-03T01:32:12.694Z,90.48
2022-11-03T01:34:40.456Z,91.64
2022-11-03T01:37:07.625Z,91.18
2022-11-03T01:39:34.321Z,90.99
2022-11-03T01:42:01.053Z,91.73
2022-11-03T01:44:39.759Z,90.92
2022-11-03T01:47:11.362Z,92.00
2022-11-03T01:49:53.213Z,91.06
2022-11-03T01:52:26.081Z,91.63
2022-11-03T01:54:59.531Z,91.74
2022-11-03T01:57:33.892Z,90.62
2022-11-03T02:00:01.759Z,91.98
2022-11-03T02:02:28.735Z,90.93
2022-11-03T02:04:59.051Z,92.25
2022-11-03T02:07:54.066Z,91.81
2022-11-03T02:10:20.900Z,91.83
2022-11-03T02:12:48.377Z,93.13
2022-11-03T02:15:17.470Z,92.79
2022-11-03T02:17:47.813Z,93.46
2022-11-03T02:20:18.425Z,92.43
2022-11-03T02:23:36.178Z,93.35
2022-11-03T02:26:03.018Z,93.60
2022-11-03T02:28:32.196Z,92.49
2022-11-03T02:31:23.241Z,92.67
2022-11-03T02:33:59.187Z,92.02
2022-11-03T02:36:50.801Z,92.58
2022-11-03T02:39:23.254Z,92.45
2022-11-03T02:41:52.704Z,91.82
2022-11-03T02:44:21.053Z,92.33
2022-11-03T02:46:57.230Z,91.61
2022-11-03T02:49:24.160Z,92.49
2022-11-03T02:52:02.984Z,91.15
2022-11-03T02:54:40.281Z,91.46
2022-11-03T02:57:16.879Z,91.63
2022-11-03T03:00:00.480Z,92.50
2022-11-03T03:02:57.855Z,91.28
2022-11-03T03:05:29.958Z,91.52
2022-11-03T03:08:02.305Z,90.58
2022-11-03T03:10:34.033Z,91.57
2022-11-03T03:13:04.045Z,90.81
2022-11-03T03:15:48.004Z,91.31
2022-11-03T03:18:30.510Z,91.56
2022-11-03T03:21:03.433Z,91.03
2022-11-03T03:23:38.144Z,91.85
2022-11-03T03:26:16.712Z,91.87
2022-11-03T03:29:05.602Z,91.15
2022-11-03T03:31:37.044Z,91.50
2022-11-03T03:34:23.659Z,90.85
2022-11-03T03:36:56.840Z,91.06
2022-11-03T03:39:28.895Z,91.98
2022-11-03T03:41:59.164Z,92.38
2022-11-03T03:44:28.010Z,92.79
2022-11-03T03:47:12.825Z,92.65
2022-11-03T03:49:39.969Z,91.22
2022-11-03T03:52:09.433Z,91.32
2022-11-03T03:54:37.004Z,91.82
2022-11-03T03:57:11.661Z,92.99
2022-11-03T03:59:38.407Z,92.66
2022-11-03T04:02:05.283Z,91.24
2022-11-03T04:04:32.088Z,92.01
2022-11-03T04:07:42.490Z,92.72
2022-11-03T04:10:10.695Z,91.76
2022-11-03T04:12:56.276Z,91.95
2022-11-03T04:15:44.815Z,92.84
2022-11-03T04:18:31.337Z,92.75
2022-11-03T04:21:16.419Z,92.19
2022-11-03T04:23:43.137Z,91.99
2022-11-03T04:26:16.187Z,92.74
2022-11-03T04:28:43.337Z,92.64
2022-11-03T04:31:14.544Z,93.00
2022-11-03T04:33:41.782Z,92.46
2022-11-03T04:36:23.792Z,92.42
2022-11-03T04:38:51.470Z,93.03
2022-11-03T04:41:20.138Z,91.65
2022-11-03T04:43:47.216Z,94.12
2022-11-03T04:46:25.917Z,93.94
2022-11-03T04:48:59.196Z,92.42
2022-11-03T04:51:29.856Z,94.25
2022-11-03T04:54:04.301Z,94.44
2022-11-03T04:56:30.946Z,93.79
2022-11-03T04:58:58.445Z,94.18
2022-11-03T05:01:25.467Z,94.17
2022-11-03T05:04:15.402Z,93.98
2022-11-03T05:06:51.602Z,93.96
2022-11-03T05:09:23.401Z,93.33
2022-11-03T05:11:50.168Z,94.55
2022-11-03T05:14:27.600Z,93.86
2022-11-03T05:16:55.516Z,94.50
2022-11-03T05:19:29.926Z,94.86
2022-11-03T05:21:59.132Z,93.85
2022-11-03T05:24:26.803Z,94.14
2022-11-03T05:26:56.089Z,94.42
2022-11-03T05:29:41.294Z,94.69
2022-11-03T05:32:22.744Z,93.71
2022-11-03T05:34:52.760Z,94.16
2022-11-03T05:37:30.804Z,94.12
2022-11-03T05:40:07.935Z,93.38
2022-11-03T05:42:41.648Z,95.54
2022-11-03T05:45:20.457Z,94.11
2022-11-03T05:47:53.260Z,94.16
2022-11-03T05:50:20.949Z,95.13
2022-11-03T05:52:49.825Z,94.31
2022-11-03T05:55:27.967Z,94.41
2022-11-03T05:57:59.087Z,96.38
2022-11-03T06:00:36.654Z,93.25
2022-11-03T06:03:04.980Z,96.92
2022-11-03T06:05:34.456Z,96.65
2022-11-03T06:08:10.639Z,96.93
2022-11-03T06:10:45.337Z,96.32
2022-11-03T06:13:16.558Z,96.60
2022-11-03T06:15:46.797Z,97.20
2022-11-03T06:18:21.831Z,97.18
2022-11-03T06:21:02.769Z,96.28
2022-11-03T06:23:29.454Z,96.97
2022-11-03T06:25:56.380Z,96.93
2022-11-03T06:28:27.221Z,97.67
2022-11-03T06:30:53.921Z,97.92
2022-11-03T06:33:29.842Z,97.56
2022-11-03T06:36:02.015Z,98.29
2022-11-03T06:38:31.689Z,98.59
2022-11-03T06:40:59.063Z,98.23
2022-11-03T06:43:40.900Z,98.07
2022-11-03T06:46:25.036Z,98.15
2022-11-03T06:48:54.447Z,98.49
2022-11-03T06:51:35.170Z,99.73
2022-11-03T06:54:05.699Z,99.27
2022-11-03T06:56:36.960Z,99.46
2022-11-03T06:59:03.548Z,99.20
2022-11-03T07:01:33.748Z,100.00
2022-11-03T07:04:04.914Z,100.00
2022-11-03T07:06:35.232Z,98.46
2022-11-03T07:09:05.020Z,99.70
2022-11-03T07:11:58.570Z,98.47
2022-11-03T07:14:29.616Z,100.00
2022-11-03T07:17:03.220Z,99.94
2022-11-03T07:19:33.720Z,100.00
2022-11-03T07:22:09.504Z,100.00
2022-11-03T07:24:40.335Z,100.00
2022-11-03T07:27:25.805Z,99.43
2022-11-03T07:29:57.373Z,98.89
2022-11-03T07:32:33.334Z,100.00
2022-11-03T07:35:46.955Z,97.96
2022-11-03T07:38:20.882Z,98.80
2022-11-03T07:40:49.253Z,98.21
2022-11-03T07:43:24.044Z,99.43
2022-11-03T07:45:54.146Z,97.92
2022-11-03T07:48:26.998Z,98.93
2022-11-03T07:50:56.282Z,98.36
2022-11-03T07:53:37.108Z,97.26
2022-11-03T07:56:15.825Z,97.92
2022-11-03T07:58:43.578Z,97.64
2022-11-03T08:01:25.918Z,97.01
2022-11-03T08:03:54.829Z,96.51
2022-11-03T08:06:21.526Z,97.90
2022-11-03T08:08:48.201Z,96.68
2022-11-03T08:13:41.481Z,96.62
2022-11-03T08:16:08.467Z,94.84
2022-11-03T08:18:35.128Z,96.87
2022-11-03T08:21:01.778Z,94.68
2022-11-03T08:23:29.809Z,94.96
2022-11-03T08:25:56.720Z,95.97
2022-11-03T08:28:23.477Z,94.41
2022-11-03T08:30:50.208Z,95.04
2022-11-03T08:33:17.539Z,94.25
2022-11-03T08:35:44.304Z,94.84
2022-11-03T08:38:10.957Z,94.86
2022-11-03T08:40:38.254Z,95.00
2022-11-03T08:43:06.484Z,93.90
2022-11-03T08:45:33.115Z,93.59
2022-11-03T08:47:59.983Z,92.95
2022-11-03T08:50:26.558Z,93.71
2022-11-03T08:52:53.136Z,92.69
2022-11-03T08:55:19.890Z,93.14
2022-11-03T08:57:47.377Z,92.66
2022-11-03T09:00:14.907Z,92.31
2022-11-03T09:02:41.763Z,92.03
2022-11-03T09:05:08.892Z,91.99
2022-11-03T09:10:24.925Z,90.66
2022-11-03T09:12:55.344Z,90.12
2022-11-03T09:15:22.004Z,89.79
2022-11-03T09:17:48.710Z,89.52
2022-11-03T09:20:15.585Z,88.81
2022-11-03T09:22:42.232Z,89.55
2022-11-03T09:25:09.439Z,88.81
2022-11-03T09:27:36.182Z,87.34
2022-11-03T09:30:13.228Z,86.41
2022-11-03T09:32:41.212Z,87.39
2022-11-03T09:35:09.771Z,87.46
2022-11-03T09:37:36.924Z,85.23
2022-11-03T09:40:04.442Z,85.53
2022-11-03T09:42:34.540Z,84.44
2022-11-03T09:45:02.044Z,82.68
2022-11-03T09:47:38.120Z,82.18
2022-11-03T09:50:06.244Z,83.77
2022-11-03T09:52:33.639Z,83.78
2022-11-03T09:55:00.421Z,83.15
2022-11-03T09:57:28.303Z,83.06
2022-11-03T09:59:55.554Z,81.83
2022-11-03T10:02:22.780Z,83.53
2022-11-03T10:04:49.664Z,83.61
2022-11-03T10:07:16.540Z,83.87
2022-11-03T10:09:47.329Z,80.65
2022-11-03T10:12:14.100Z,83.40
2022-11-03T10:14:42.293Z,82.33
2022-11-03T10:17:15.262Z,82.98
2022-11-03T10:19:42.375Z,80.01
2022-11-03T10:22:09.202Z,80.75
2022-11-03T10:24:36.024Z,80.94
2022-11-03T10:27:02.797Z,82.09
2022-11-03T10:29:29.439Z,79.58
2022-11-03T10:31:58.675Z,79.95
2022-11-03T10:34:32.087Z,81.12
2022-11-03T10:37:09.932Z,80.52
2022-11-03T10:39:36.589Z,79.36
2022-11-03T10:42:03.213Z,83.57
2022-11-03T10:44:30.870Z,78.63
2022-11-03T10:46:59.537Z,79.60
2022-11-03T10:49:29.467Z,80.01
2022-11-03T10:52:08.209Z,79.70
2022-11-03T10:54:36.275Z,78.76
2022-11-03T10:57:02.909Z,79.61
2022-11-03T10:59:37.009Z,77.08
2022-11-03T11:02:13.676Z,79.19
2022-11-03T11:04:41.712Z,80.67
2022-11-03T11:07:31.136Z,76.20
2022-11-03T11:10:07.291Z,78.72
2022-11-03T11:12:34.644Z,75.42
2022-11-03T11:15:07.114Z,78.96
2022-11-03T11:17:43.236Z,75.64
2022-11-03T11:20:18.992Z,74.83
2022-11-03T11:22:46.018Z,75.91
2022-11-03T11:25:13.490Z,73.79
2022-11-03T11:27:39.949Z,73.35
2022-11-03T11:30:28.124Z,75.55
2022-11-03T11:33:13.604Z,77.37
2022-11-03T11:35:40.555Z,75.16
2022-11-03T11:38:45.696Z,73.91
2022-11-03T11:41:12.336Z,74.93
2022-11-03T11:43:38.977Z,75.35
2022-11-03T11:46:23.954Z,75.20
2022-11-03T11:48:59.374Z,78.06
2022-11-03T11:51:26.487Z,78.15
2022-11-03T11:54:16.199Z,75.59
2022-11-03T11:56:44.900Z,73.72
2022-11-03T11:59:29.474Z,71.89
2022-11-03T12:01:57.394Z,74.22
2022-11-03T12:04:27.946Z,75.71
2022-11-03T12:06:55.966Z,74.99
2022-11-03T12:09:25.055Z,70.49
2022-11-03T12:11:56.817Z,71.89
2022-11-03T12:14:31.090Z,73.33
2022-11-03T12:16:59.709Z,74.61
2022-11-03T12:19:34.446Z,73.26
2022-11-03T12:22:02.102Z,72.67
2022-11-03T12:24:31.375Z,74.22
2022-11-03T12:27:01.258Z,68.97
2022-11-03T12:29:27.987Z,75.31
2022-11-03T12:31:55.871Z,74.35
2022-11-03T12:34:22.497Z,69.33
2022-11-03T12:36:53.269Z,71.95
2022-11-03T12:39:22.644Z,72.91
2022-11-03T12:41:49.226Z,68.85
2022-11-03T12:44:15.872Z,69.64
2022-11-03T12:46:42.718Z,72.13
2022-11-03T12:49:09.241Z,71.29
2022-11-03T12:51:36.904Z,72.90
2022-11-03T12:54:03.527Z,70.29
2022-11-03T12:56:30.275Z,70.79
2022-11-03T12:58:56.815Z,71.42
2022-11-03T13:01:23.690Z,73.02
2022-11-03T13:03:50.399Z,75.01
2022-11-03T13:06:17.368Z,74.25
2022-11-03T13:08:45.628Z,70.07
2022-11-03T13:11:33.871Z,71.63
2022-11-03T13:14:00.413Z,73.10
2022-11-03T13:16:27.273Z,70.13
2022-11-03T13:18:53.805Z,73.02
2022-11-03T13:21:21.442Z,71.25
2022-11-03T13:23:48.291Z,71.56
2022-11-03T13:26:15.940Z,74.44
2022-11-03T13:28:42.509Z,72.28
2022-11-03T13:31:10.471Z,68.34
2022-11-03T13:33:37.105Z,74.18
2022-11-03T13:36:05.128Z,74.47
2022-11-03T13:38:31.897Z,75.89
2022-11-03T13:41:03.578Z,74.80
2022-11-03T13:43:32.166Z,74.04
2022-11-03T13:46:02.249Z,73.57
2022-11-03T13:51:17.787Z,74.00
2022-11-03T13:56:32.114Z,74.40
2022-11-03T14:01:45.931Z,68.47
2022-11-03T14:06:59.257Z,71.04
2022-11-03T14:09:26.068Z,73.86
2022-11-03T14:12:11.493Z,70.87
2022-11-03T14:14:38.099Z,76.25
2022-11-03T14:17:04.751Z,72.37
2022-11-03T14:19:39.691Z,73.63
2022-11-03T14:22:09.428Z,75.11
2022-11-03T14:24:36.242Z,75.07
2022-11-03T14:27:21.766Z,69.26
2022-11-03T14:29:51.870Z,72.78
2022-11-03T14:32:19.698Z,73.39
2022-11-03T14:34:47.851Z,70.52
2022-11-03T14:37:16.402Z,73.63
2022-11-03T14:39:43.093Z,75.44
2022-11-03T14:42:15.916Z,74.68
2022-11-03T14:44:45.011Z,73.11
2022-11-03T14:47:21.384Z,73.81
2022-11-03T14:49:49.094Z,72.56
2022-11-03T14:52:16.928Z,72.07
2022-11-03T14:54:44.238Z,75.74
2022-11-03T14:57:11.008Z,75.74
2022-11-03T14:59:37.801Z,73.57
2022-11-03T15:02:06.038Z,75.50
2022-11-03T15:04:33.244Z,73.26
2022-11-03T15:07:00.091Z,74.30
2022-11-03T15:09:26.838Z,72.28
2022-11-03T15:11:53.554Z,70.96
2022-11-03T15:14:20.507Z,73.74
2022-11-03T15:16:48.134Z,74.06
2022-11-03T15:19:14.910Z,74.38
2022-11-03T15:21:41.666Z,73.31
2022-11-03T15:26:54.983Z,75.37
2022-11-03T15:29:24.071Z,72.90
2022-11-03T15:31:52.889Z,74.18
2022-11-03T15:34:19.553Z,74.25
2022-11-03T15:36:46.157Z,77.99
2022-11-03T15:39:13.535Z,79.89
2022-11-03T15:41:40.459Z,82.50
2022-11-03T15:44:07.086Z,85.28
2022-11-03T15:46:35.884Z,87.49
2022-11-03T15:49:03.291Z,89.92
2022-11-03T15:51:51.117Z,91.82
2022-11-03T15:54:17.728Z,92.81
2022-11-03T15:56:44.446Z,92.76
2022-11-03T15:59:12.119Z,93.93
2022-11-03T16:01:39.455Z,94.95
2022-11-03T16:04:40.256Z,97.30
2022-11-03T16:07:08.573Z,95.81
2022-11-03T16:09:35.636Z,97.64
2022-11-03T16:12:02.876Z,98.19
2022-11-03T16:14:30.423Z,98.22
2022-11-03T16:16:57.786Z,98.61
2022-11-03T16:19:25.629Z,97.44
2022-11-03T16:21:52.251Z,97.58
2022-11-03T16:24:18.967Z,97.61
2022-11-03T16:26:45.996Z,97.81
2022-11-03T16:29:12.840Z,97.56
2022-11-03T16:31:39.607Z,100.00
2022-11-03T16:34:44.873Z,100.00
2022-11-03T16:37:30.438Z,99.98
2022-11-03T16:39:57.125Z,100.00
2022-11-03T16:42:24.827Z,100.00
2022-11-03T16:44:52.390Z,100.00
2022-11-03T16:47:19.049Z,100.00
2022-11-03T16:49:45.761Z,100.00
2022-11-03T16:52:13.504Z,100.00
2022-11-03T16:54:40.154Z,100.00
2022-11-03T16:57:17.742Z,100.00
2022-11-03T16:59:44.382Z,100.00
2022-11-03T17:02:15.155Z,100.00
2022-11-03T17:04:43.790Z,100.00
2022-11-03T17:07:11.393Z,100.00
2022-11-03T17:09:38.059Z,100.00
2022-11-03T17:12:04.770Z,100.00
2022-11-03T17:14:31.310Z,100.00
2022-11-03T17:17:00.565Z,100.00
2022-11-03T17:19:28.186Z,100.00
2022-11-03T17:21:54.769Z,100.00
2022-11-03T17:24:22.090Z,100.00
2022-11-03T17:27:03.164Z,100.00
2022-11-03T17:29:40.604Z,100.00
2022-11-03T17:32:11.876Z,100.00
2022-11-03T17:34:38.906Z,100.00
2022-11-03T17:37:25.108Z,100.00
2022-11-03T17:39:52.188Z,100.00
2022-11-03T17:42:22.002Z,100.00
2022-11-03T17:44:50.471Z,100.00
2022-11-03T17:47:18.841Z,100.00
2022-11-03T17:49:47.094Z,100.00
2022-11-03T17:52:28.342Z,100.00
2022-11-03T17:54:58.304Z,100.00
2022-11-03T17:57:26.454Z,100.00
2022-11-03T17:59:55.250Z,100.00
2022-11-03T18:03:00.734Z,100.00
2022-11-03T18:05:41.475Z,100.00
2022-11-03T18:08:11.504Z,100.00
2022-11-03T18:10:42.111Z,100.00
2022-11-03T18:13:34.204Z,100.00
2022-11-03T18:16:10.412Z,100.00
2022-11-03T18:18:42.092Z,100.00
2022-11-03T18:21:14.736Z,100.00
2022-11-03T18:23:41.725Z,100.00
2022-11-03T18:26:23.253Z,100.00
2022-11-03T18:28:50.726Z,100.00
2022-11-03T18:31:35.794Z,100.00
2022-11-03T18:34:06.140Z,100.00
2022-11-03T18:36:34.242Z,100.00
2022-11-03T18:39:02.267Z,100.00
2022-11-03T18:41:41.095Z,100.00
2022-11-03T18:44:14.499Z,100.00
2022-11-03T18:46:41.349Z,100.00
2022-11-03T18:49:08.250Z,100.00
2022-11-03T18:51:35.221Z,100.00
2022-11-03T18:54:02.096Z,100.00
2022-11-03T18:56:31.608Z,100.00
2022-11-03T18:58:59.513Z,100.00
2022-11-03T19:01:27.995Z,100.00
2022-11-03T19:03:56.405Z,100.00
2022-11-03T19:06:24.509Z,100.00
2022-11-03T19:08:58.815Z,100.00
2022-11-03T19:11:26.384Z,100.00
2022-11-03T19:13:53.266Z,100.00
2022-11-03T19:16:23.705Z,100.00
2022-11-03T19:18:52.344Z,100.00
2022-11-03T19:21:24.037Z,100.00
2022-11-03T19:23:58.093Z,100.00
2022-11-03T19:26:36.598Z,100.00
2022-11-03T19:29:09.098Z,100.00
2022-11-03T19:31:47.693Z,100.00
2022-11-03T19:34:21.442Z,100.00
2022-11-03T19:36:49.572Z,100.00
2022-11-03T19:39:29.386Z,100.00
2022-11-03T19:42:15.633Z,100.00
2022-11-03T19:44:42.205Z,100.00
2022-11-03T19:47:14.449Z,100.00
2022-11-03T19:49:41.073Z,100.00
2022-11-03T19:52:13.230Z,100.00
2022-11-03T19:54:41.107Z,100.00
2022-11-03T19:57:12.294Z,100.00
2022-11-03T19:59:39.525Z,100.00
2022-11-03T20:02:06.571Z,100.00
2022-11-03T20:04:33.390Z,100.00
2022-11-03T20:07:02.823Z,100.00
2022-11-03T20:09:30.094Z,100.00
2022-11-03T20:12:01.402Z,100.00
2022-11-03T20:14:28.285Z,100.00
2022-11-03T20:17:13.103Z,100.00
2022-11-03T20:19:40.585Z,100.00
2022-11-03T20:22:14.200Z,100.00
2022-11-03T20:24:40.917Z,100.00
2022-11-03T20:27:11.457Z,100.00
2022-11-03T20:29:39.407Z,100.00
2022-11-03T20:32:06.110Z,100.00
2022-11-03T20:34:32.991Z,100.00
2022-11-03T20:37:04.472Z,100.00
2022-11-03T20:39:33.645Z,100.00
2022-11-03T20:42:00.384Z,100.00
2022-11-03T20:44:27.055Z,100.00
2022-11-03T20:46:53.763Z,100.00
2022-11-03T20:49:21.662Z,100.00
2022-11-03T20:51:48.313Z,100.00
2022-11-03T20:54:17.660Z,100.00
2022-11-03T20:56:45.994Z,100.00
2022-11-03T20:59:16.811Z,100.00
2022-11-03T21:01:45.189Z,100.00
2022-11-03T21:04:15.068Z,100.00
2022-11-03T21:06:42.638Z,100.00
2022-11-03T21:09:15.253Z,100.00
2022-11-03T21:11:43.452Z,100.00
2022-11-03T21:14:16.321Z,100.00
2022-11-03T21:17:01.947Z,100.00
2022-11-03T21:19:49.730Z,100.00
2022-11-03T21:22:51.317Z,100.00
2022-11-03T21:25:04.876Z,100.00
2022-11-03T21:27:33.827Z,100.00
2022-11-03T21:30:01.735Z,100.00
2022-11-03T21:32:28.271Z,100.00
2022-11-03T21:34:55.000Z,100.00
2022-11-03T21:37:22.672Z,100.00
2022-11-03T21:39:49.228Z,100.00
2022-11-03T21:42:35.146Z,100.00
2022-11-03T21:45:01.674Z,100.00
2022-11-03T21:47:28.628Z,100.00
2022-11-03T21:49:55.257Z,100.00
2022-11-03T21:52:32.181Z,100.00
2022-11-03T21:55:00.130Z,100.00
2022-11-03T21:57:28.875Z,100.00
2022-11-03T22:00:01.143Z,100.00
2022-11-03T22:02:30.065Z,100.00
2022-11-03T22:04:57.419Z,100.00
2022-11-03T22:07:24.167Z,100.00
2022-11-03T22:09:50.872Z,100.00
2022-11-03T22:12:17.688Z,100.00
2022-11-03T22:15:02.901Z,100.00
2022-11-03T22:17:29.408Z,100.00
2022-11-03T22:20:14.325Z,100.00
2022-11-03T22:22:59.697Z,100.00
2022-11-03T22:25:44.714Z,100.00
2022-11-03T22:28:14.650Z,100.00
2022-11-03T22:31:00.264Z,100.00
2022-11-03T22:33:27.100Z,100.00
2022-11-03T22:36:21.241Z,100.00
2022-11-03T22:39:07.403Z,100.00
2022-11-03T22:41:53.753Z,100.00
2022-11-03T22:44:39.533Z,100.00
2022-11-03T22:47:08.296Z,100.00
2022-11-03T22:49:35.930Z,100.00
2022-11-03T22:52:03.343Z,100.00
2022-11-03T22:54:30.081Z,100.00
2022-11-03T22:56:56.639Z,100.00
2022-11-03T22:59:23.277Z,100.00
2022-11-03T23:01:49.955Z,100.00
2022-11-03T23:04:16.734Z,100.00
2022-11-03T23:06:43.318Z,100.00
2022-11-03T23:09:12.177Z,100.00
2022-11-03T23:11:38.937Z,100.00
2022-11-03T23:14:11.014Z,100.00
2022-11-03T23:16:40.197Z,100.00
2022-11-03T23:19:29.328Z,100.00
2022-11-03T23:21:56.135Z,100.00
2022-11-03T23:24:45.055Z,100.00
2022-11-03T23:27:13.134Z,100.00
2022-11-03T23:29:40.155Z,100.00
2022-11-03T23:32:07.050Z,100.00
2022-11-03T23:34:52.182Z,100.00
2022-11-03T23:37:19.355Z,100.00
2022-11-03T23:39:45.913Z,100.00
2022-11-03T23:42:12.471Z,100.00
2022-11-03T23:44:59.023Z,100.00
2022-11-03T23:47:44.282Z,100.00
2022-11-03T23:50:10.765Z,100.00
2022-11-03T23:52:37.339Z,100.00
2022-11-03T23:55:04.148Z,100.00
2022-11-03T23:57:49.398Z,100.00
